createdAt,value
2022-12-16T00:01:38.008Z,29.90
2022-12-16T00:05:44.421Z,22.30
2022-12-16T00:09:47.681Z,16.77
2022-12-16T00:14:27.494Z,25.57
2022-12-16T00:18:30.533Z,19.17
2022-12-16T00:22:33.564Z,19.57
2022-12-16T00:26:36.617Z,27.63
2022-12-16T00:30:41.381Z,21.87
2022-12-16T00:34:44.433Z,18.17
2022-12-16T00:38:47.491Z,24.93
2022-12-16T00:42:50.561Z,24.40
2022-12-16T00:46:56.641Z,20.70
2022-12-16T00:51:33.495Z,23.60
2022-12-16T00:55:36.579Z,30.70
2022-12-16T00:59:39.613Z,25.13
2022-12-16T01:03:44.101Z,21.73
2022-12-16T01:07:53.208Z,24.20
2022-12-16T01:11:56.818Z,24.63
2022-12-16T01:16:01.927Z,21.67
2022-12-16T01:20:07.707Z,21.40
2022-12-16T01:24:41.608Z,17.70
2022-12-16T01:28:44.989Z,28.37
2022-12-16T01:32:48.061Z,30.37
2022-12-16T01:36:52.485Z,23.07
2022-12-16T01:40:55.792Z,25.80
2022-12-16T01:45:19.266Z,27.17
2022-12-16T01:49:27.118Z,22.67
2022-12-16T01:53:32.465Z,24.20
2022-12-16T01:57:41.935Z,22.83
2022-12-16T02:01:45.070Z,22.37
2022-12-16T02:05:49.322Z,20.43
2022-12-16T02:09:54.024Z,22.37
2022-12-16T02:14:23.380Z,22.23
2022-12-16T02:19:04.000Z,26.77
2022-12-16T02:23:26.785Z,22.73
2022-12-16T02:27:58.170Z,26.40
2022-12-16T02:32:09.316Z,24.80
2022-12-16T02:36:20.856Z,23.80
2022-12-16T02:40:28.277Z,24.87
2022-12-16T02:44:42.771Z,20.50
2022-12-16T02:48:47.404Z,28.40
2022-12-16T02:52:51.573Z,23.40
2022-12-16T02:57:08.761Z,24.17
2022-12-16T03:01:10.904Z,22.33
2022-12-16T03:05:21.000Z,24.23
2022-12-16T03:09:29.772Z,27.17
2022-12-16T03:13:36.784Z,26.93
2022-12-16T03:17:40.584Z,22.73
2022-12-16T03:21:50.501Z,28.00
2022-12-16T03:25:57.538Z,19.20
2022-12-16T03:30:06.795Z,23.40
2022-12-16T03:34:17.807Z,17.63
2022-12-16T03:38:23.309Z,17.73
2022-12-16T03:42:27.924Z,13.83
2022-12-16T03:46:31.021Z,15.43
2022-12-16T03:50:35.312Z,23.10
2022-12-16T03:54:39.762Z,24.77
2022-12-16T03:58:43.086Z,17.43
2022-12-16T04:02:46.401Z,27.77
2022-12-16T04:07:10.056Z,22.23
2022-12-16T04:11:31.699Z,30.33
2022-12-16T04:15:58.158Z,15.90
2022-12-16T04:20:18.680Z,18.60
2022-12-16T04:24:29.880Z,23.33
2022-12-16T04:28:34.309Z,19.97
2022-12-16T04:32:51.216Z,16.63
2022-12-16T04:37:11.784Z,21.33
2022-12-16T04:41:32.412Z,14.33
2022-12-16T04:45:54.599Z,18.13
2022-12-16T04:50:14.963Z,24.23
2022-12-16T04:54:35.569Z,19.50
2022-12-16T04:58:56.059Z,17.07
2022-12-16T05:03:18.074Z,21.17
2022-12-16T05:07:38.980Z,17.57
2022-12-16T05:11:59.775Z,22.03
2022-12-16T05:16:20.265Z,10.80
2022-12-16T05:20:42.038Z,19.97
2022-12-16T05:25:02.567Z,21.50
2022-12-16T05:29:22.974Z,8.63
2022-12-16T05:33:43.685Z,6.83
2022-12-16T05:43:21.024Z,14.13
2022-12-16T05:47:53.609Z,9.57
2022-12-16T05:52:31.659Z,15.17
2022-12-16T05:57:04.834Z,19.20
2022-12-16T06:01:42.249Z,16.83
2022-12-16T06:06:18.112Z,16.87
2022-12-16T06:10:53.491Z,13.67
2022-12-16T06:15:29.542Z,14.60
2022-12-16T06:20:05.771Z,14.10
2022-12-16T06:24:26.666Z,12.40
2022-12-16T06:29:08.225Z,12.93
2022-12-16T06:33:28.814Z,15.07
2022-12-16T06:38:07.653Z,16.70
2022-12-16T06:42:27.801Z,13.33
2022-12-16T06:47:03.689Z,10.63
2022-12-16T06:51:39.177Z,14.40
2022-12-16T06:56:16.577Z,11.27
2022-12-16T07:00:48.584Z,15.17
2022-12-16T07:05:46.233Z,14.57
2022-12-16T07:10:40.657Z,11.87
2022-12-16T07:15:18.166Z,16.10
2022-12-16T07:19:50.412Z,14.87
2022-12-16T07:24:26.419Z,15.43
2022-12-16T07:29:02.153Z,14.60
2022-12-16T07:33:23.932Z,13.90
2022-12-16T07:37:44.590Z,13.17
2022-12-16T07:42:19.968Z,17.60
2022-12-16T07:46:55.921Z,11.40
2022-12-16T07:51:32.846Z,12.70
2022-12-16T07:55:52.970Z,12.77
2022-12-16T08:00:14.479Z,14.53
2022-12-16T08:04:50.068Z,9.57
2022-12-16T08:09:12.625Z,12.37
2022-12-16T08:13:33.991Z,14.37
2022-12-16T08:18:10.510Z,11.33
2022-12-16T08:22:51.877Z,12.80
2022-12-16T08:27:14.355Z,12.10
2022-12-16T08:31:49.716Z,12.47
2022-12-16T08:36:26.185Z,11.00
2022-12-16T08:41:02.890Z,12.43
2022-12-16T08:45:39.602Z,10.63
2022-12-16T08:50:14.947Z,12.17
2022-12-16T08:54:50.174Z,12.10
2022-12-16T08:59:26.099Z,13.47
2022-12-16T09:04:02.882Z,14.77
2022-12-16T09:08:35.718Z,11.77
2022-12-16T09:18:27.734Z,13.73
2022-12-16T09:23:19.894Z,13.00
2022-12-16T09:28:17.894Z,9.50
2022-12-16T09:33:12.588Z,11.23
2022-12-16T09:37:48.111Z,11.47
2022-12-16T09:42:40.341Z,13.47
2022-12-16T09:47:11.270Z,10.70
2022-12-16T09:52:05.107Z,12.30
2022-12-16T09:56:46.917Z,10.43
2022-12-16T10:01:18.914Z,8.03
2022-12-16T10:06:02.509Z,10.27
2022-12-16T10:11:02.454Z,11.60
2022-12-16T10:16:00.195Z,9.43
2022-12-16T10:21:00.140Z,11.53
2022-12-16T10:25:27.549Z,15.20
2022-12-16T10:29:58.562Z,10.30
2022-12-16T10:34:35.581Z,12.87
2022-12-16T10:39:32.968Z,10.43
2022-12-16T10:44:12.964Z,12.27
2022-12-16T10:48:53.579Z,15.07
2022-12-16T10:53:21.773Z,13.40
2022-12-16T10:58:18.790Z,10.83
2022-12-16T11:07:58.204Z,13.23
2022-12-16T11:12:42.533Z,9.93
2022-12-16T11:17:34.462Z,11.47
2022-12-16T11:21:56.287Z,10.00
2022-12-16T11:26:25.129Z,11.20
2022-12-16T11:31:00.867Z,12.57
2022-12-16T11:35:23.556Z,9.70
2022-12-16T11:39:49.007Z,10.93
2022-12-16T11:44:20.729Z,11.00
2022-12-16T11:48:54.686Z,10.00
2022-12-16T11:53:51.436Z,9.37
2022-12-16T11:58:22.897Z,10.50
2022-12-16T12:02:50.802Z,9.70
2022-12-16T12:07:48.224Z,9.77
2022-12-16T12:12:13.980Z,10.63
2022-12-16T12:17:11.672Z,9.17
2022-12-16T12:21:42.445Z,9.20
2022-12-16T12:26:10.214Z,8.00
2022-12-16T12:30:33.511Z,7.57
2022-12-16T12:35:03.169Z,8.13
2022-12-16T12:39:38.815Z,7.63
2022-12-16T12:44:42.378Z,7.23
2022-12-16T12:49:17.596Z,5.60
2022-12-16T12:53:46.885Z,5.63
2022-12-16T12:58:18.469Z,8.37
2022-12-16T13:02:43.953Z,6.40
2022-12-16T13:07:05.133Z,4.70
2022-12-16T13:11:41.382Z,8.03
2022-12-16T13:16:03.232Z,6.27
2022-12-16T13:20:45.378Z,5.97
2022-12-16T13:25:08.566Z,7.17
2022-12-16T13:29:43.378Z,6.43
2022-12-16T13:34:19.954Z,7.03
2022-12-16T13:38:41.025Z,7.13
2022-12-16T13:43:20.680Z,6.97
2022-12-16T13:48:05.633Z,6.10
2022-12-16T13:52:36.790Z,8.20
2022-12-16T13:57:02.313Z,7.30
2022-12-16T14:01:28.960Z,8.13
2022-12-16T14:05:54.801Z,6.80
2022-12-16T14:10:41.236Z,7.47
2022-12-16T14:15:07.259Z,7.20
2022-12-16T14:19:38.075Z,6.37
2022-12-16T14:24:09.835Z,7.73
2022-12-16T14:28:42.141Z,7.20
2022-12-16T14:33:02.501Z,8.30
2022-12-16T14:37:57.220Z,7.30
2022-12-16T14:42:18.356Z,7.03
2022-12-16T14:46:47.244Z,8.20
2022-12-16T14:51:07.885Z,7.13
2022-12-16T14:55:33.900Z,9.27
2022-12-16T14:59:55.989Z,5.90
2022-12-16T15:04:19.814Z,9.10
2022-12-16T15:08:49.481Z,7.77
2022-12-16T15:13:09.778Z,8.43
2022-12-16T15:18:08.074Z,8.33
2022-12-16T15:22:35.141Z,8.53
2022-12-16T15:26:55.934Z,9.20
2022-12-16T15:31:24.719Z,10.23
2022-12-16T15:35:50.098Z,9.47
2022-12-16T15:40:40.048Z,7.97
2022-12-16T15:45:07.884Z,6.77
2022-12-16T15:49:40.224Z,7.93
2022-12-16T15:54:01.487Z,8.07
2022-12-16T15:58:45.366Z,7.30
2022-12-16T16:03:08.090Z,8.17
2022-12-16T16:07:33.629Z,7.90
2022-12-16T16:12:31.301Z,7.30
2022-12-16T16:17:34.061Z,7.80
2022-12-16T16:21:54.761Z,8.50
2022-12-16T16:26:15.675Z,8.50
2022-12-16T16:30:51.927Z,9.83
2022-12-16T16:35:29.388Z,10.10
2022-12-16T16:39:50.307Z,11.50
2022-12-16T16:44:27.212Z,10.00
2022-12-16T16:49:12.967Z,10.93
2022-12-16T16:53:49.663Z,11.30
2022-12-16T16:58:29.518Z,11.70
2022-12-16T17:03:02.271Z,10.73
2022-12-16T17:07:37.975Z,14.93
2022-12-16T17:12:15.027Z,17.33
2022-12-16T17:16:35.793Z,19.30
2022-12-16T17:20:56.421Z,18.27
2022-12-16T17:25:33.080Z,17.17
2022-12-16T17:30:10.123Z,16.07
2022-12-16T17:34:45.928Z,17.00
2022-12-16T17:39:34.088Z,15.90
2022-12-16T17:44:07.030Z,18.37
2022-12-16T17:48:46.184Z,20.93
2022-12-16T17:53:06.670Z,19.00
2022-12-16T17:57:41.653Z,14.40
2022-12-16T18:02:17.797Z,16.77
2022-12-16T18:06:54.890Z,18.80
2022-12-16T18:11:32.566Z,20.07
2022-12-16T18:16:33.513Z,19.53
2022-12-16T18:21:28.665Z,17.70
2022-12-16T18:26:15.869Z,18.57
2022-12-16T18:30:39.844Z,18.30
2022-12-16T18:35:26.723Z,22.90
2022-12-16T18:40:23.970Z,20.00
2022-12-16T18:45:19.724Z,18.83
2022-12-16T18:49:54.885Z,20.43
2022-12-16T18:54:52.537Z,22.03
2022-12-16T18:59:46.561Z,19.23
2022-12-16T19:04:24.640Z,20.60
2022-12-16T19:09:00.636Z,22.77
2022-12-16T19:18:38.086Z,19.97
2022-12-16T19:23:36.283Z,18.73
2022-12-16T19:28:32.696Z,20.43
2022-12-16T19:33:08.331Z,20.50
2022-12-16T19:37:44.700Z,22.00
2022-12-16T19:42:20.630Z,21.13
2022-12-16T19:46:57.795Z,19.27
2022-12-16T19:51:30.607Z,21.27
2022-12-16T19:56:12.803Z,20.70
2022-12-16T20:00:41.858Z,22.40
2022-12-16T20:05:18.493Z,21.93
2022-12-16T20:09:54.851Z,25.73
2022-12-16T20:14:29.092Z,21.60
2022-12-16T20:19:05.040Z,20.00
2022-12-16T20:23:42.125Z,21.73
2022-12-16T20:32:57.715Z,24.80
2022-12-16T20:37:33.705Z,23.33
2022-12-16T20:42:10.693Z,20.77
2022-12-16T20:46:46.892Z,23.43
2022-12-16T20:51:27.021Z,22.27
2022-12-16T20:55:59.763Z,21.20
2022-12-16T21:00:19.298Z,19.90
2022-12-16T21:04:42.928Z,21.17
2022-12-16T21:09:15.943Z,20.10
2022-12-16T21:13:50.964Z,19.27
2022-12-16T21:14:42.429Z,21.40
2022-12-16T21:18:17.971Z,19.83
2022-12-16T21:22:48.052Z,20.37
2022-12-16T21:27:24.338Z,20.47
2022-12-16T21:31:44.985Z,21.63
2022-12-16T21:36:11.810Z,20.93
2022-12-16T21:40:41.448Z,21.83
2022-12-16T21:45:17.017Z,21.97
2022-12-16T21:49:37.337Z,20.53
2022-12-16T21:54:14.679Z,21.77
2022-12-16T21:58:51.382Z,21.00
2022-12-16T22:03:27.490Z,23.13
2022-12-16T22:07:48.224Z,23.40
2022-12-16T22:12:25.307Z,22.07
2022-12-16T22:17:25.262Z,22.10
2022-12-16T22:21:47.512Z,21.87
2022-12-16T22:26:23.411Z,21.63
2022-12-16T22:30:45.207Z,20.50
2022-12-16T22:35:20.538Z,22.80
2022-12-16T22:39:44.689Z,21.83
2022-12-16T22:44:05.662Z,21.43
2022-12-16T22:48:29.954Z,22.73
2022-12-16T22:53:02.491Z,21.67
2022-12-16T22:57:23.573Z,23.77
2022-12-16T23:01:58.919Z,23.63
2022-12-16T23:06:22.478Z,22.80
2022-12-16T23:10:42.801Z,22.77
2022-12-16T23:15:03.385Z,23.63
2022-12-16T23:19:24.104Z,22.67
2022-12-16T23:23:46.442Z,16.03
2022-12-16T23:28:06.910Z,21.57
2022-12-16T23:32:27.727Z,22.03
2022-12-16T23:36:48.436Z,21.70
2022-12-16T23:41:29.198Z,22.30
2022-12-16T23:50:34.525Z,20.23
2022-12-16T23:55:10.377Z,22.63
2022-12-16T23:59:48.247Z,22.30
